sensor_id;sensor_type;location;lat;lon;timestamp;pressure;altitude;pressure_sealevel;temperature;humidity
62980;BME280;49075;53.988;27.678;2023-02-02T00:01:35;968.4;;;-1;82.8
62980;BME280;49075;53.988;27.678;2023-02-02T00:06:49;968.4;;;-1.1;83
62980;BME280;49075;53.988;27.678;2023-02-02T00:11:25;968.4;;;-0.9;82.6
62980;BME280;49075;53.988;27.678;2023-02-02T00:16:33;968.4;;;-1;82.8
62980;BME280;49075;53.988;27.678;2023-02-02T00:21:37;968.4;;;-1.1;83
62980;BME280;49075;53.988;27.678;2023-02-02T00:26:37;968.4;;;-1;82.8
62980;BME280;49075;53.988;27.678;2023-02-02T00:31:15;968.5;;;-1;82.8
62980;BME280;49075;53.988;27.678;2023-02-02T00:36:27;968.5;;;-1.1;82.8
62980;BME280;49075;53.988;27.678;2023-02-02T00:41:49;968.5;;;-1;82.5
62980;BME280;49075;53.988;27.678;2023-02-02T00:46:25;968.5;;;-0.9;82.3
62980;BME280;49075;53.988;27.678;2023-02-02T00:51:15;968.5;;;-0.9;82.1
62980;BME280;49075;53.988;27.678;2023-02-02T00:56:15;968.5;;;-0.9;82
62980;BME280;49075;53.988;27.678;2023-02-02T01:01:37;968.4;;;-0.9;81.9
62980;BME280;49075;53.988;27.678;2023-02-02T01:06:33;968.5;;;-0.9;81.9
62980;BME280;49075;53.988;27.678;2023-02-02T01:11:37;968.5;;;-0.9;81.8
62980;BME280;49075;53.988;27.678;2023-02-02T01:16:27;968.5;;;-0.9;81.8
62980;BME280;49075;53.988;27.678;2023-02-02T01:21:15;968.5;;;-0.9;81.9
62980;BME280;49075;53.988;27.678;2023-02-02T01:26:27;968.5;;;-0.9;81.9
62980;BME280;49075;53.988;27.678;2023-02-02T01:31:16;968.5;;;-0.8;81.7
62980;BME280;49075;53.988;27.678;2023-02-02T01:36:16;968.5;;;-0.7;81.4
62980;BME280;49075;53.988;27.678;2023-02-02T01:41:33;968.5;;;-0.8;81.5
62980;BME280;49075;53.988;27.678;2023-02-02T01:46:39;968.5;;;-0.8;81.5
62980;BME280;49075;53.988;27.678;2023-02-02T01:51:16;968.5;;;-0.8;81.4
62980;BME280;49075;53.988;27.678;2023-02-02T01:56:16;968.5;;;-0.7;81.4
62980;BME280;49075;53.988;27.678;2023-02-02T02:01:25;968.5;;;-0.7;81.2
62980;BME280;49075;53.988;27.678;2023-02-02T02:06:25;968.5;;;-0.8;81.5
62980;BME280;49075;53.988;27.678;2023-02-02T02:11:25;968.6;;;-0.7;81.3
62980;BME280;49075;53.988;27.678;2023-02-02T02:16:17;968.6;;;-0.8;81.5
62980;BME280;49075;53.988;27.678;2023-02-02T02:21:56;968.7;;;-0.8;81.6
62980;BME280;49075;53.988;27.678;2023-02-02T02:26:36;968.7;;;-0.7;81.6
62980;BME280;49075;53.988;27.678;2023-02-02T02:32:00;968.7;;;-0.8;81.7
62980;BME280;49075;53.988;27.678;2023-02-02T02:36:16;968.8;;;-0.8;81.7
62980;BME280;49075;53.988;27.678;2023-02-02T02:41:38;968.8;;;-0.8;81.7
62980;BME280;49075;53.988;27.678;2023-02-02T02:46:37;968.9;;;-0.7;81.7
62980;BME280;49075;53.988;27.678;2023-02-02T02:51:47;968.9;;;-0.8;82.1
62980;BME280;49075;53.988;27.678;2023-02-02T02:56:26;968.9;;;-0.9;82.4
62980;BME280;49075;53.988;27.678;2023-02-02T03:01:28;968.9;;;-0.9;82.4
62980;BME280;49075;53.988;27.678;2023-02-02T03:06:17;968.9;;;-1;82.5
62980;BME280;49075;53.988;27.678;2023-02-02T03:11:15;969;;;-0.9;82.3
62980;BME280;49075;53.988;27.678;2023-02-02T03:16:49;969;;;-0.8;82.2
62980;BME280;49075;53.988;27.678;2023-02-02T03:21:37;969.1;;;-0.8;82
62980;BME280;49075;53.988;27.678;2023-02-02T03:26:37;969.2;;;-0.8;81.9
62980;BME280;49075;53.988;27.678;2023-02-02T03:31:23;969.2;;;-0.7;81.8
62980;BME280;49075;53.988;27.678;2023-02-02T03:36:59;969.2;;;-0.7;81.8
62980;BME280;49075;53.988;27.678;2023-02-02T03:41:23;969.2;;;-0.7;81.7
62980;BME280;49075;53.988;27.678;2023-02-02T03:46:39;969.2;;;-0.7;81.9
62980;BME280;49075;53.988;27.678;2023-02-02T03:51:25;969.3;;;-0.7;81.8
62980;BME280;49075;53.988;27.678;2023-02-02T03:56:49;969.3;;;-0.7;81.9
62980;BME280;49075;53.988;27.678;2023-02-02T04:01:15;969.3;;;-0.9;82.3
62980;BME280;49075;53.988;27.678;2023-02-02T04:06:37;969.4;;;-0.9;82.3
62980;BME280;49075;53.988;27.678;2023-02-02T04:11:27;969.4;;;-0.8;82
62980;BME280;49075;53.988;27.678;2023-02-02T04:16:25;969.4;;;-0.7;81.9
62980;BME280;49075;53.988;27.678;2023-02-02T04:21:27;969.4;;;-0.8;82.1
62980;BME280;49075;53.988;27.678;2023-02-02T04:26:25;969.5;;;-0.9;82.4
62980;BME280;49075;53.988;27.678;2023-02-02T04:31:15;969.5;;;-0.8;82.1
62980;BME280;49075;53.988;27.678;2023-02-02T04:36:25;969.5;;;-0.8;82.3
62980;BME280;49075;53.988;27.678;2023-02-02T04:41:15;969.5;;;-0.7;82.1
62980;BME280;49075;53.988;27.678;2023-02-02T04:46:35;969.6;;;-0.8;82.2
62980;BME280;49075;53.988;27.678;2023-02-02T04:51:25;969.6;;;-0.8;82.2
62980;BME280;49075;53.988;27.678;2023-02-02T04:56:16;969.6;;;-0.8;82.2
62980;BME280;49075;53.988;27.678;2023-02-02T05:01:16;969.7;;;-0.7;81.9
62980;BME280;49075;53.988;27.678;2023-02-02T05:06:27;969.7;;;-0.7;81.8
62980;BME280;49075;53.988;27.678;2023-02-02T05:11:16;969.8;;;-0.6;81.6
62980;BME280;49075;53.988;27.678;2023-02-02T05:16:17;969.8;;;-0.7;81.5
62980;BME280;49075;53.988;27.678;2023-02-02T05:21:17;969.9;;;-0.6;81.4
62980;BME280;49075;53.988;27.678;2023-02-02T05:26:25;970;;;-0.7;81.4
62980;BME280;49075;53.988;27.678;2023-02-02T05:31:15;970.1;;;-0.6;81.3
62980;BME280;49075;53.988;27.678;2023-02-02T05:36:17;970.1;;;-0.6;81.3
62980;BME280;49075;53.988;27.678;2023-02-02T05:41:17;970.1;;;-0.6;81.2
62980;BME280;49075;53.988;27.678;2023-02-02T05:46:29;970.2;;;-0.6;81.3
62980;BME280;49075;53.988;27.678;2023-02-02T05:51:17;970.3;;;-0.6;81.3
62980;BME280;49075;53.988;27.678;2023-02-02T05:56:17;970.3;;;-0.6;81.1
62980;BME280;49075;53.988;27.678;2023-02-02T06:01:27;970.3;;;-0.5;81.1
62980;BME280;49075;53.988;27.678;2023-02-02T06:06:23;970.4;;;-0.5;81
62980;BME280;49075;53.988;27.678;2023-02-02T06:11:27;970.5;;;-0.5;81.2
62980;BME280;49075;53.988;27.678;2023-02-02T06:16:25;970.5;;;-0.6;81.2
62980;BME280;49075;53.988;27.678;2023-02-02T06:21:37;970.6;;;-0.5;81.3
62980;BME280;49075;53.988;27.678;2023-02-02T06:26:39;970.6;;;-0.5;81.4
62980;BME280;49075;53.988;27.678;2023-02-02T06:31:15;970.6;;;-0.5;81.3
62980;BME280;49075;53.988;27.678;2023-02-02T06:36:27;970.7;;;-0.4;81.2
62980;BME280;49075;53.988;27.678;2023-02-02T06:41:25;970.7;;;-0.4;81
62980;BME280;49075;53.988;27.678;2023-02-02T06:46:17;970.7;;;-0.5;81.1
62980;BME280;49075;53.988;27.678;2023-02-02T06:51:27;970.8;;;-0.5;81
62980;BME280;49075;53.988;27.678;2023-02-02T06:56:29;970.8;;;-0.4;80.9
62980;BME280;49075;53.988;27.678;2023-02-02T07:01:27;970.8;;;-0.3;80.6
62980;BME280;49075;53.988;27.678;2023-02-02T07:06:37;970.8;;;-0.2;80.5
62980;BME280;49075;53.988;27.678;2023-02-02T07:11:17;970.8;;;-0.1;80.2
62980;BME280;49075;53.988;27.678;2023-02-02T07:16:25;970.9;;;0;80.2
62980;BME280;49075;53.988;27.678;2023-02-02T07:21:41;970.9;;;0;79.7
62980;BME280;49075;53.988;27.678;2023-02-02T07:26:29;971;;;0;79.8
62980;BME280;49075;53.988;27.678;2023-02-02T07:31:51;971.1;;;0;79.6
62980;BME280;49075;53.988;27.678;2023-02-02T07:36:37;971.1;;;0.2;79.6
62980;BME280;49075;53.988;27.678;2023-02-02T07:41:39;971.2;;;0.1;79.4
62980;BME280;49075;53.988;27.678;2023-02-02T07:46:27;971.2;;;0.1;79.3
62980;BME280;49075;53.988;27.678;2023-02-02T07:51:39;971.2;;;0.1;79.3
62980;BME280;49075;53.988;27.678;2023-02-02T07:56:16;971.3;;;0;79.2
62980;BME280;49075;53.988;27.678;2023-02-02T08:01:39;971.3;;;0;79.4
62980;BME280;49075;53.988;27.678;2023-02-02T08:06:18;971.4;;;0.1;79.3
62980;BME280;49075;53.988;27.678;2023-02-02T08:11:19;971.4;;;0.1;79.3
62980;BME280;49075;53.988;27.678;2023-02-02T08:16:39;971.5;;;0.1;79.2
62980;BME280;49075;53.988;27.678;2023-02-02T08:21:27;971.5;;;0.1;79.4
62980;BME280;49075;53.988;27.678;2023-02-02T08:26:29;971.5;;;0;79.5
62980;BME280;49075;53.988;27.678;2023-02-02T08:31:26;971.5;;;0.2;79.4
62980;BME280;49075;53.988;27.678;2023-02-02T08:36:29;971.6;;;0.2;79.1
62980;BME280;49075;53.988;27.678;2023-02-02T08:41:27;971.6;;;0.3;79.2
62980;BME280;49075;53.988;27.678;2023-02-02T08:46:18;971.6;;;0.4;78.6
62980;BME280;49075;53.988;27.678;2023-02-02T08:51:19;971.6;;;0.3;78.6
62980;BME280;49075;53.988;27.678;2023-02-02T08:56:31;971.6;;;0.4;78.4
62980;BME280;49075;53.988;27.678;2023-02-02T09:01:27;971.7;;;0.5;78.6
62980;BME280;49075;53.988;27.678;2023-02-02T09:06:30;971.7;;;0.4;78.3
62980;BME280;49075;53.988;27.678;2023-02-02T09:11:27;971.7;;;0.4;78.5
62980;BME280;49075;53.988;27.678;2023-02-02T09:16:49;971.8;;;0.3;78.2
62980;BME280;49075;53.988;27.678;2023-02-02T09:21:29;971.8;;;0.4;78.5
62980;BME280;49075;53.988;27.678;2023-02-02T09:26:39;971.8;;;0.3;78
62980;BME280;49075;53.988;27.678;2023-02-02T09:31:17;971.9;;;0.3;78.2
62980;BME280;49075;53.988;27.678;2023-02-02T09:36:27;971.9;;;0.2;78.2
62980;BME280;49075;53.988;27.678;2023-02-02T09:42:32;971.9;;;0.2;78.1
62980;BME280;49075;53.988;27.678;2023-02-02T09:46:20;971.9;;;0.4;77.8
62980;BME280;49075;53.988;27.678;2023-02-02T09:51:18;972;;;0.5;77.5
62980;BME280;49075;53.988;27.678;2023-02-02T09:56:36;972;;;0.6;77.3
62980;BME280;49075;53.988;27.678;2023-02-02T10:01:29;972;;;0.6;77.5
62980;BME280;49075;53.988;27.678;2023-02-02T10:06:40;972;;;0.6;77.2
62980;BME280;49075;53.988;27.678;2023-02-02T10:11:50;972;;;0.8;77.4
62980;BME280;49075;53.988;27.678;2023-02-02T10:16:18;972;;;0.7;76.8
62980;BME280;49075;53.988;27.678;2023-02-02T10:21:19;972;;;0.9;76.9
62980;BME280;49075;53.988;27.678;2023-02-02T10:26:18;972;;;0.8;76.7
62980;BME280;49075;53.988;27.678;2023-02-02T10:31:30;972;;;0.9;76.8
62980;BME280;49075;53.988;27.678;2023-02-02T10:36:19;972;;;0.9;76.6
62980;BME280;49075;53.988;27.678;2023-02-02T10:41:37;972;;;0.9;76.7
62980;BME280;49075;53.988;27.678;2023-02-02T10:46:19;972;;;0.9;76.5
62980;BME280;49075;53.988;27.678;2023-02-02T10:51:27;972;;;1.1;76.4
62980;BME280;49075;53.988;27.678;2023-02-02T10:56:18;972.1;;;1;76.3
62980;BME280;49075;53.988;27.678;2023-02-02T11:01:25;972.1;;;0.9;76.2
62980;BME280;49075;53.988;27.678;2023-02-02T11:06:25;972.1;;;1;76.4
62980;BME280;49075;53.988;27.678;2023-02-02T11:11:30;972.1;;;0.8;75.9
62980;BME280;49075;53.988;27.678;2023-02-02T11:16:26;972.2;;;0.9;76.4
62980;BME280;49075;53.988;27.678;2023-02-02T11:21:18;972.2;;;0.9;76.4
62980;BME280;49075;53.988;27.678;2023-02-02T11:26:39;972.2;;;0.9;76.6
62980;BME280;49075;53.988;27.678;2023-02-02T11:31:29;972.2;;;1;76.4
62980;BME280;49075;53.988;27.678;2023-02-02T11:36:16;972.3;;;0.9;76.6
62980;BME280;49075;53.988;27.678;2023-02-02T11:41:13;972.4;;;0.9;76.5
62980;BME280;49075;53.988;27.678;2023-02-02T11:46:24;972.4;;;0.9;76.6
62980;BME280;49075;53.988;27.678;2023-02-02T11:51:35;972.4;;;0.8;76.5
62980;BME280;49075;53.988;27.678;2023-02-02T11:56:25;972.5;;;0.8;76.7
62980;BME280;49075;53.988;27.678;2023-02-02T12:01:28;972.5;;;0.8;76.5
62980;BME280;49075;53.988;27.678;2023-02-02T12:06:34;972.5;;;0.9;76.5
62980;BME280;49075;53.988;27.678;2023-02-02T12:11:29;972.6;;;0.9;76.3
62980;BME280;49075;53.988;27.678;2023-02-02T12:16:30;972.6;;;0.8;76.4
62980;BME280;49075;53.988;27.678;2023-02-02T12:21:27;972.6;;;0.8;76.4
62980;BME280;49075;53.988;27.678;2023-02-02T12:26:17;972.6;;;0.9;76.2
62980;BME280;49075;53.988;27.678;2023-02-02T12:31:19;972.7;;;1;76.3
62980;BME280;49075;53.988;27.678;2023-02-02T12:36:34;972.7;;;0.8;76
62980;BME280;49075;53.988;27.678;2023-02-02T12:41:33;972.8;;;1;76.3
62980;BME280;49075;53.988;27.678;2023-02-02T12:46:43;972.8;;;0.9;76
62980;BME280;49075;53.988;27.678;2023-02-02T12:51:22;972.9;;;0.9;76.4
62980;BME280;49075;53.988;27.678;2023-02-02T12:56:30;972.9;;;0.8;76.3
62980;BME280;49075;53.988;27.678;2023-02-02T13:01:50;972.9;;;0.9;76.4
62980;BME280;49075;53.988;27.678;2023-02-02T13:06:43;972.9;;;0.8;76.2
62980;BME280;49075;53.988;27.678;2023-02-02T13:11:16;972.9;;;0.9;76.5
62980;BME280;49075;53.988;27.678;2023-02-02T13:16:38;973;;;0.9;76.3
62980;BME280;49075;53.988;27.678;2023-02-02T13:21:15;973;;;1;76.3
62980;BME280;49075;53.988;27.678;2023-02-02T13:26:16;973;;;0.9;75.8
62980;BME280;49075;53.988;27.678;2023-02-02T13:31:27;973;;;0.8;76.3
62980;BME280;49075;53.988;27.678;2023-02-02T13:36:29;973.1;;;0.6;76
62980;BME280;49075;53.988;27.678;2023-02-02T13:41:37;973.1;;;0.6;76.4
62980;BME280;49075;53.988;27.678;2023-02-02T13:46:22;973.2;;;0.6;76.2
62980;BME280;49075;53.988;27.678;2023-02-02T13:51:41;973.2;;;0.5;76.6
62980;BME280;49075;53.988;27.678;2023-02-02T13:56:27;973.2;;;0.5;76.3
62980;BME280;49075;53.988;27.678;2023-02-02T14:01:27;973.3;;;0.5;76.4
62980;BME280;49075;53.988;27.678;2023-02-02T14:06:48;973.3;;;0.5;76
62980;BME280;49075;53.988;27.678;2023-02-02T14:11:38;973.4;;;0.6;76.3
62980;BME280;49075;53.988;27.678;2023-02-02T14:16:19;973.4;;;0.6;76.1
62980;BME280;49075;53.988;27.678;2023-02-02T14:21:40;973.4;;;0.6;76.2
62980;BME280;49075;53.988;27.678;2023-02-02T14:26:18;973.5;;;0.5;75.8
62980;BME280;49075;53.988;27.678;2023-02-02T14:31:39;973.5;;;0.4;76.2
62980;BME280;49075;53.988;27.678;2023-02-02T14:36:29;973.6;;;0.3;75.8
62980;BME280;49075;53.988;27.678;2023-02-02T14:41:30;973.6;;;0.3;76.1
62980;BME280;49075;53.988;27.678;2023-02-02T14:46:33;973.7;;;0.1;76.2
62980;BME280;49075;53.988;27.678;2023-02-02T14:51:28;973.7;;;0.2;76.2
62980;BME280;49075;53.988;27.678;2023-02-02T14:56:37;973.7;;;0;76.5
62980;BME280;49075;53.988;27.678;2023-02-02T15:01:37;973.7;;;-0.1;77
62980;BME280;49075;53.988;27.678;2023-02-02T15:06:29;973.8;;;-0.2;77.3
62980;BME280;49075;53.988;27.678;2023-02-02T15:11:27;973.9;;;-0.1;77.1
62980;BME280;49075;53.988;27.678;2023-02-02T15:16:29;974;;;-0.2;77.2
62980;BME280;49075;53.988;27.678;2023-02-02T15:22:00;973.9;;;-0.3;77.8
62980;BME280;49075;53.988;27.678;2023-02-02T15:26:43;974;;;-0.3;77.6
62980;BME280;49075;53.988;27.678;2023-02-02T15:32:01;974.3;;;0;77.2
62980;BME280;49075;53.988;27.678;2023-02-02T15:36:18;974.3;;;0;77.1
62980;BME280;49075;53.988;27.678;2023-02-02T15:41:40;974.4;;;0.1;77
62980;BME280;49075;53.988;27.678;2023-02-02T15:46:30;974.4;;;0.2;77
62980;BME280;49075;53.988;27.678;2023-02-02T15:51:17;974.5;;;0.3;77
62980;BME280;49075;53.988;27.678;2023-02-02T15:56:29;974.5;;;0.3;77
62980;BME280;49075;53.988;27.678;2023-02-02T16:01:18;974.6;;;0.3;76.9
62980;BME280;49075;53.988;27.678;2023-02-02T16:06:37;974.6;;;0.3;77
62980;BME280;49075;53.988;27.678;2023-02-02T16:11:18;974.7;;;0.3;76.9
62980;BME280;49075;53.988;27.678;2023-02-02T16:16:21;974.7;;;0.3;76.9
62980;BME280;49075;53.988;27.678;2023-02-02T16:21:19;974.8;;;0.2;77
62980;BME280;49075;53.988;27.678;2023-02-02T16:26:28;974.8;;;0.2;77.1
62980;BME280;49075;53.988;27.678;2023-02-02T16:31:17;974.9;;;0.2;77.1
62980;BME280;49075;53.988;27.678;2023-02-02T16:36:28;975;;;0.2;77.3
62980;BME280;49075;53.988;27.678;2023-02-02T16:41:30;975;;;0.2;77.3
62980;BME280;49075;53.988;27.678;2023-02-02T16:46:35;975.1;;;0.2;77.4
62980;BME280;49075;53.988;27.678;2023-02-02T16:51:27;975.1;;;0.1;77.4
62980;BME280;49075;53.988;27.678;2023-02-02T16:56:20;975.2;;;0.1;77.4
62980;BME280;49075;53.988;27.678;2023-02-02T17:01:29;975.3;;;0;77.1
62980;BME280;49075;53.988;27.678;2023-02-02T17:06:28;975.3;;;0;77.2
62980;BME280;49075;53.988;27.678;2023-02-02T17:11:26;975.3;;;-0.1;77.1
62980;BME280;49075;53.988;27.678;2023-02-02T17:16:16;975.3;;;-0.1;77.4
62980;BME280;49075;53.988;27.678;2023-02-02T17:21:25;975.4;;;-0.1;77.6
62980;BME280;49075;53.988;27.678;2023-02-02T17:26:15;975.5;;;-0.1;77.7
62980;BME280;49075;53.988;27.678;2023-02-02T17:31:27;975.5;;;-0.1;78
62980;BME280;49075;53.988;27.678;2023-02-02T17:36:17;975.5;;;0;78
62980;BME280;49075;53.988;27.678;2023-02-02T17:41:17;975.6;;;0;78.3
62980;BME280;49075;53.988;27.678;2023-02-02T17:46:49;975.6;;;0;78.3
62980;BME280;49075;53.988;27.678;2023-02-02T17:51:29;975.7;;;-0.1;78.6
62980;BME280;49075;53.988;27.678;2023-02-02T17:56:25;975.7;;;-0.1;78.5
62980;BME280;49075;53.988;27.678;2023-02-02T18:01:17;975.7;;;-0.3;78.7
62980;BME280;49075;53.988;27.678;2023-02-02T18:06:39;975.8;;;-0.3;78.8
62980;BME280;49075;53.988;27.678;2023-02-02T18:11:17;975.9;;;-0.3;79
62980;BME280;49075;53.988;27.678;2023-02-02T18:16:39;975.9;;;-0.2;78.8
62980;BME280;49075;53.988;27.678;2023-02-02T18:21:27;976;;;-0.3;79
62980;BME280;49075;53.988;27.678;2023-02-02T18:26:41;976.1;;;-0.3;79.1
62980;BME280;49075;53.988;27.678;2023-02-02T18:31:39;976.1;;;-0.4;79.3
62980;BME280;49075;53.988;27.678;2023-02-02T18:36:25;976.2;;;-0.3;79.1
62980;BME280;49075;53.988;27.678;2023-02-02T18:41:23;976.3;;;-0.4;78.8
62980;BME280;49075;53.988;27.678;2023-02-02T18:46:37;976.4;;;-0.5;77.9
62980;BME280;49075;53.988;27.678;2023-02-02T18:51:16;976.4;;;-0.6;77.4
62980;BME280;49075;53.988;27.678;2023-02-02T18:56:28;976.5;;;-0.7;77.4
62980;BME280;49075;53.988;27.678;2023-02-02T19:01:25;976.6;;;-0.9;77.3
62980;BME280;49075;53.988;27.678;2023-02-02T19:06:27;976.7;;;-0.9;77.1
62980;BME280;49075;53.988;27.678;2023-02-02T19:11:18;976.7;;;-0.9;77
62980;BME280;49075;53.988;27.678;2023-02-02T19:16:28;976.8;;;-0.9;76.8
62980;BME280;49075;53.988;27.678;2023-02-02T19:21:27;976.9;;;-0.9;76.6
62980;BME280;49075;53.988;27.678;2023-02-02T19:26:43;976.9;;;-0.8;76.8
62980;BME280;49075;53.988;27.678;2023-02-02T19:31:17;976.9;;;-0.8;76.7
62980;BME280;49075;53.988;27.678;2023-02-02T19:36:25;977;;;-0.8;76.6
62980;BME280;49075;53.988;27.678;2023-02-02T19:41:51;977.1;;;-0.8;76.9
62980;BME280;49075;53.988;27.678;2023-02-02T19:46:40;977.1;;;-0.8;76.8
62980;BME280;49075;53.988;27.678;2023-02-02T19:51:39;977.1;;;-0.7;76.9
62980;BME280;49075;53.988;27.678;2023-02-02T19:56:29;977.2;;;-0.8;76.6
62980;BME280;49075;53.988;27.678;2023-02-02T20:01:39;977.3;;;-0.8;76.8
62980;BME280;49075;53.988;27.678;2023-02-02T20:06:27;977.4;;;-0.9;76.7
62980;BME280;49075;53.988;27.678;2023-02-02T20:11:28;977.4;;;-0.8;76.8
62980;BME280;49075;53.988;27.678;2023-02-02T20:16:46;977.5;;;-0.9;76.5
62980;BME280;49075;53.988;27.678;2023-02-02T20:21:39;977.5;;;-0.9;76.6
62980;BME280;49075;53.988;27.678;2023-02-02T20:26:20;977.5;;;-0.9;76.5
62980;BME280;49075;53.988;27.678;2023-02-02T20:31:31;977.6;;;-0.8;76.6
62980;BME280;49075;53.988;27.678;2023-02-02T20:36:31;977.6;;;-0.9;76.4
62980;BME280;49075;53.988;27.678;2023-02-02T20:41:19;977.7;;;-0.9;76.7
62980;BME280;49075;53.988;27.678;2023-02-02T20:46:29;977.8;;;-1;76.3
62980;BME280;49075;53.988;27.678;2023-02-02T20:51:19;977.8;;;-0.9;76.6
62980;BME280;49075;53.988;27.678;2023-02-02T20:56:19;977.8;;;-1;76.3
62980;BME280;49075;53.988;27.678;2023-02-02T21:01:39;977.9;;;-0.9;76.4
62980;BME280;49075;53.988;27.678;2023-02-02T21:06:17;977.9;;;-0.9;76.1
62980;BME280;49075;53.988;27.678;2023-02-02T21:11:42;977.9;;;-0.8;76.2
62980;BME280;49075;53.988;27.678;2023-02-02T21:16:17;977.9;;;-0.9;75.8
62980;BME280;49075;53.988;27.678;2023-02-02T21:21:29;978;;;-1;76
62980;BME280;49075;53.988;27.678;2023-02-02T21:26:39;978.1;;;-1;75.5
62980;BME280;49075;53.988;27.678;2023-02-02T21:31:17;978.1;;;-0.9;75.7
62980;BME280;49075;53.988;27.678;2023-02-02T21:36:29;978.1;;;-0.9;75.1
62980;BME280;49075;53.988;27.678;2023-02-02T21:41:28;978.2;;;-0.9;75.3
62980;BME280;49075;53.988;27.678;2023-02-02T21:46:37;978.2;;;-0.9;75.3
62980;BME280;49075;53.988;27.678;2023-02-02T21:51:18;978.2;;;-0.9;75.4
62980;BME280;49075;53.988;27.678;2023-02-02T21:56:26;978.2;;;-1;75.4
62980;BME280;49075;53.988;27.678;2023-02-02T22:01:19;978.3;;;-0.9;75.6
62980;BME280;49075;53.988;27.678;2023-02-02T22:06:20;978.3;;;-1;75.6
62980;BME280;49075;53.988;27.678;2023-02-02T22:11:21;978.3;;;-1;75.8
62980;BME280;49075;53.988;27.678;2023-02-02T22:16:42;978.3;;;-1;75.8
62980;BME280;49075;53.988;27.678;2023-02-02T22:21:39;978.4;;;-1;76
62980;BME280;49075;53.988;27.678;2023-02-02T22:26:39;978.4;;;-1.1;75.9
62980;BME280;49075;53.988;27.678;2023-02-02T22:31:15;978.4;;;-1;76.2
62980;BME280;49075;53.988;27.678;2023-02-02T22:36:37;978.5;;;-1.1;76.2
62980;BME280;49075;53.988;27.678;2023-02-02T22:41:15;978.5;;;-1.1;76.4
62980;BME280;49075;53.988;27.678;2023-02-02T22:46:15;978.6;;;-1.1;76.5
62980;BME280;49075;53.988;27.678;2023-02-02T22:51:23;978.6;;;-1.1;76.7
62980;BME280;49075;53.988;27.678;2023-02-02T22:56:15;978.6;;;-1.1;76.6
62980;BME280;49075;53.988;27.678;2023-02-02T23:01:17;978.7;;;-1;76.6
62980;BME280;49075;53.988;27.678;2023-02-02T23:06:25;978.7;;;-1;76.6
62980;BME280;49075;53.988;27.678;2023-02-02T23:11:27;978.7;;;-1;76.7
62980;BME280;49075;53.988;27.678;2023-02-02T23:16:37;978.7;;;-1;76.7
62980;BME280;49075;53.988;27.678;2023-02-02T23:21:41;978.7;;;-0.9;76.7
62980;BME280;49075;53.988;27.678;2023-02-02T23:26:27;978.8;;;-1;76.6
62980;BME280;49075;53.988;27.678;2023-02-02T23:31:15;978.8;;;-1;76.6
62980;BME280;49075;53.988;27.678;2023-02-02T23:36:25;978.8;;;-0.9;76.7
62980;BME280;49075;53.988;27.678;2023-02-02T23:41:35;978.8;;;-0.9;76.5
62980;BME280;49075;53.988;27.678;2023-02-02T23:46:15;978.8;;;-0.9;76.5
62980;BME280;49075;53.988;27.678;2023-02-02T23:51:25;978.8;;;-0.9;76.7
62980;BME280;49075;53.988;27.678;2023-02-02T23:56:25;978.9;;;-1;76.9
